Time;durP1;ratioP1;P1;durP2;ratioP2;P2;SDS_P1;SDS_P2;PMS_P1;PMS_P2;Temp;Humidity;BMP_temperature;BMP_pressure;BME280_temperature;BME280_humidity;BME280_pressure;Samples;Min_cycle;Max_cycle;Signal;HPM_P1;HPM_P2
2022/10/20 00:02:01;;;;;;;42.25;35.55;;;18.50;99.90;;;;;;4955408;28;20066;-83
2022/10/20 00:04:28;;;;;;;39.70;35.72;;;18.50;99.90;;;;;;4972616;28;20486;-82
2022/10/20 00:06:54;;;;;;;42.67;32.00;;;18.70;99.90;;;;;;4988808;28;20057;-83
2022/10/20 00:09:20;;;;;;;45.45;30.52;;;18.70;99.90;;;;;;4988465;28;20030;-83
2022/10/20 00:11:46;;;;;;;34.83;26.48;;;18.90;99.90;;;;;;4988296;28;20464;-83
2022/10/20 00:14:12;;;;;;;38.35;29.75;;;18.90;99.90;;;;;;4988875;28;20037;-83
2022/10/20 00:16:39;;;;;;;31.88;26.25;;;18.70;99.90;;;;;;4987154;28;20038;-83
2022/10/20 00:19:05;;;;;;;40.55;27.58;;;18.70;99.90;;;;;;4988450;28;20478;-82
2022/10/20 00:21:32;;;;;;;39.55;27.90;;;18.70;99.90;;;;;;4956743;28;20027;-83
2022/10/20 00:23:59;;;;;;;36.53;27.35;;;18.70;99.90;;;;;;4955538;28;20038;-82
2022/10/20 00:26:26;;;;;;;35.08;29.17;;;18.70;99.90;;;;;;4972338;28;20482;-83
2022/10/20 00:28:52;;;;;;;38.40;28.30;;;18.70;99.90;;;;;;4988314;28;20034;-83
2022/10/20 00:31:19;;;;;;;31.13;25.02;;;18.80;99.90;;;;;;4973017;28;20047;-82
2022/10/20 00:33:45;;;;;;;30.02;26.80;;;18.90;99.90;;;;;;4988226;28;20034;-83
2022/10/20 00:36:13;;;;;;;36.33;27.45;;;18.90;99.90;;;;;;4987770;28;20039;-82
2022/10/20 00:38:39;;;;;;;35.42;26.35;;;18.80;99.90;;;;;;4972914;28;20045;-83
2022/10/20 00:41:05;;;;;;;37.55;26.05;;;18.70;99.90;;;;;;4955998;28;20031;-83
2022/10/20 00:43:54;;;;;;;31.05;25.52;;;18.70;99.90;;;;;;4971719;28;20050;-83
2022/10/20 00:46:50;;;;;;;34.05;24.65;;;18.70;99.90;;;;;;4987126;28;20038;-82
2022/10/20 00:49:20;;;;;;;29.65;23.92;;;18.60;99.90;;;;;;4955433;28;20031;-83
2022/10/20 00:51:47;;;;;;;37.97;24.48;;;18.60;99.90;;;;;;4956715;28;20045;-83
2022/10/20 00:54:18;;;;;;;32.95;25.45;;;18.50;99.90;;;;;;4955147;28;20058;-83
2022/10/20 00:56:44;;;;;;;;;;;18.60;99.90;;;;;;4973118;28;20054;-83
2022/10/20 00:59:10;;;;;;;34.42;25.23;;;18.70;99.90;;;;;;4987721;28;19914;-82
2022/10/20 01:01:37;;;;;;;34.25;27.17;;;18.60;99.90;;;;;;4958349;28;20058;-83
2022/10/20 01:04:03;;;;;;;35.45;27.48;;;18.50;99.90;;;;;;4991956;28;20038;-83
2022/10/20 01:06:29;;;;;;;40.45;28.75;;;18.50;99.90;;;;;;4991515;28;20388;-83
2022/10/20 01:08:56;;;;;;;33.60;26.92;;;18.50;99.90;;;;;;4991458;28;20046;-83
2022/10/20 01:11:28;;;;;;;32.25;26.42;;;18.50;99.90;;;;;;4991577;28;20061;-83
2022/10/20 01:14:15;;;;;;;35.95;27.17;;;18.60;99.90;;;;;;4974620;28;20046;-83
2022/10/20 01:16:59;;;;;;;33.15;24.30;;;18.50;99.90;;;;;;4975873;28;20047;-83
2022/10/20 01:19:50;;;;;;;31.77;25.25;;;18.70;99.90;;;;;;4991172;28;20047;-83
2022/10/20 01:22:46;;;;;;;26.48;23.33;;;18.70;99.90;;;;;;4988775;28;20039;-81
2022/10/20 01:25:24;;;;;;;27.17;21.52;;;18.70;99.90;;;;;;4991269;28;20046;-83
2022/10/20 01:28:33;;;;;;;22.65;20.48;;;18.70;99.90;;;;;;4972626;28;20038;-83
2022/10/20 01:31:00;;;;;;;30.00;22.52;;;18.60;99.90;;;;;;4966757;28;20031;-82
2022/10/20 01:33:39;;;;;;;22.65;20.42;;;18.70;99.90;;;;;;4959384;28;20022;-83
2022/10/20 01:36:11;;;;;;;23.00;20.77;;;18.80;99.90;;;;;;4990976;28;20051;-83
2022/10/20 01:38:48;;;;;;;22.15;20.00;;;18.70;99.90;;;;;;4990254;28;20038;-83
2022/10/20 01:41:34;;;;;;;22.67;19.92;;;18.80;99.90;;;;;;4975335;28;20039;-83
2022/10/20 01:44:02;;;;;;;22.13;19.88;;;18.70;99.90;;;;;;4990353;28;20023;-83
2022/10/20 01:46:28;;;;;;;24.55;22.42;;;18.70;99.90;;;;;;4958892;28;20035;-83
2022/10/20 01:48:54;;;;;;;18.88;17.25;;;18.70;99.90;;;;;;4959059;28;20042;-83
2022/10/20 01:51:20;;;;;;;19.00;17.25;;;18.70;99.90;;;;;;4943247;28;20049;-83
2022/10/20 01:53:46;;;;;;;20.63;18.80;;;18.70;99.90;;;;;;4958449;28;20033;-83
2022/10/20 01:56:19;;;;;;;20.95;19.33;;;18.60;99.90;;;;;;4991093;28;20048;-83
2022/10/20 01:59:06;;;;;;;20.77;19.27;;;18.50;99.90;;;;;;4974000;28;20522;-83
2022/10/20 02:01:44;;;;;;;21.15;19.48;;;18.40;99.90;;;;;;4973556;28;20047;-83
2022/10/20 02:04:11;;;;;;;19.40;17.90;;;18.50;99.90;;;;;;4972316;28;20464;-83
2022/10/20 02:07:12;;;;;;;21.10;19.30;;;18.50;99.90;;;;;;4987041;28;20031;-83
2022/10/20 02:09:39;;;;;;;;;;;18.50;99.90;;;;;;4933777;29;20043;-83
2022/10/20 02:12:07;;;;;;;18.92;17.17;;;18.60;99.90;;;;;;4916635;29;19921;-83
2022/10/20 02:14:34;;;;;;;19.10;17.63;;;18.60;99.90;;;;;;4915053;29;20493;-83
2022/10/20 02:17:03;;;;;;;19.77;17.00;;;18.60;99.90;;;;;;4916534;29;20428;-83
2022/10/20 02:19:32;;;;;;;20.75;19.10;;;18.60;99.90;;;;;;4913761;29;20036;-83
2022/10/20 02:21:58;;;;;;;21.35;19.13;;;18.60;99.90;;;;;;4883288;29;20040;-83
2022/10/20 02:24:32;;;;;;;18.67;17.10;;;18.70;99.90;;;;;;4912628;29;20043;-83
2022/10/20 02:27:00;;;;;;;18.52;16.95;;;18.80;99.90;;;;;;4901924;29;20035;-83
2022/10/20 02:29:28;;;;;;;18.88;17.40;;;18.70;99.90;;;;;;4915822;29;20028;-83
2022/10/20 02:31:54;;;;;;;20.75;18.83;;;18.60;99.90;;;;;;4916727;29;20039;-83
2022/10/20 02:34:20;;;;;;;19.67;18.13;;;18.40;99.90;;;;;;4917295;29;20039;-83
2022/10/20 02:36:46;;;;;;;20.67;18.73;;;18.40;99.90;;;;;;4911433;28;20392;-83
2022/10/20 02:39:12;;;;;;;20.55;19.02;;;18.40;99.90;;;;;;4918655;29;20521;-83
2022/10/20 02:41:38;;;;;;;19.92;18.52;;;18.40;99.90;;;;;;4915351;29;20044;-82
2022/10/20 02:44:05;;;;;;;20.38;18.95;;;18.30;99.90;;;;;;4940343;28;20543;-82
2022/10/20 02:46:31;;;;;;;18.38;16.67;;;18.30;99.90;;;;;;4989618;28;20054;-83
2022/10/20 02:48:57;;;;;;;18.48;16.92;;;18.30;99.90;;;;;;4988950;28;20034;-83
2022/10/20 02:51:23;;;;;;;18.83;17.67;;;18.30;99.90;;;;;;4975452;28;20031;-83
2022/10/20 02:53:49;;;;;;;18.83;17.60;;;18.20;99.90;;;;;;4973633;28;20046;-83
2022/10/20 02:56:15;;;;;;;18.55;17.15;;;18.20;99.90;;;;;;4990445;28;20034;-82
2022/10/20 02:58:41;;;;;;;18.73;17.73;;;18.20;99.90;;;;;;4990126;28;20038;-82
2022/10/20 03:01:08;;;;;;;19.13;17.60;;;18.20;99.90;;;;;;4974578;28;20070;-83
2022/10/20 03:03:34;;;;;;;19.63;18.42;;;18.20;99.90;;;;;;4972643;28;20038;-83
2022/10/20 03:06:08;;;;;;;18.70;17.33;;;18.00;99.90;;;;;;4957202;28;20031;-83
2022/10/20 03:08:34;;;;;;;17.80;16.52;;;18.00;99.90;;;;;;4974119;28;20047;-83
2022/10/20 03:11:00;;;;;;;18.92;17.33;;;18.00;99.90;;;;;;4973832;28;20472;-83
2022/10/20 03:13:26;;;;;;;17.83;16.52;;;17.90;99.90;;;;;;4970601;28;20050;-83
2022/10/20 03:15:52;;;;;;;19.45;18.05;;;17.90;99.90;;;;;;4977162;28;20038;-83
2022/10/20 03:18:18;;;;;;;17.65;16.45;;;17.90;99.90;;;;;;4989620;28;20042;-84
2022/10/20 03:20:44;;;;;;;17.65;16.55;;;17.80;99.90;;;;;;4989181;28;20046;-83
2022/10/20 03:23:10;;;;;;;18.90;17.35;;;17.90;99.90;;;;;;4996843;28;20045;-83
2022/10/20 03:25:37;;;;;;;18.77;17.75;;;17.90;99.90;;;;;;4973032;28;20053;-83
2022/10/20 03:28:03;;;;;;;18.50;17.00;;;17.90;99.90;;;;;;4989615;28;20043;-84
2022/10/20 03:30:29;;;;;;;19.90;18.50;;;17.90;99.90;;;;;;4973569;28;20027;-84
2022/10/20 03:32:55;;;;;;;20.45;18.75;;;18.00;99.90;;;;;;4972312;28;20042;-85
2022/10/20 03:35:21;;;;;;;20.35;19.13;;;18.00;99.90;;;;;;4973249;28;20035;-84
2022/10/20 03:37:47;;;;;;;19.50;18.20;;;18.10;99.90;;;;;;4972674;28;20047;-84
2022/10/20 03:40:13;;;;;;;19.48;17.70;;;18.10;99.90;;;;;;4972612;28;20053;-84
2022/10/20 03:42:39;;;;;;;17.70;16.45;;;18.00;99.90;;;;;;4986412;28;20066;-85
2022/10/20 03:45:06;;;;;;;17.02;15.77;;;17.90;99.90;;;;;;4987712;28;20035;-84
2022/10/20 03:47:32;;;;;;;19.83;17.90;;;17.80;99.90;;;;;;4992194;28;20034;-84
2022/10/20 03:49:58;;;;;;;18.35;17.45;;;17.90;99.90;;;;;;4978361;28;20035;-84
2022/10/20 03:52:24;;;;;;;17.10;15.90;;;17.90;99.90;;;;;;4988689;28;20037;-85
2022/10/20 03:54:50;;;;;;;18.45;17.08;;;17.90;99.90;;;;;;4988736;28;20030;-85
2022/10/20 03:57:16;;;;;;;17.45;16.30;;;17.90;99.90;;;;;;4988468;28;20034;-85
2022/10/20 03:59:42;;;;;;;19.67;18.25;;;18.00;99.90;;;;;;4956908;28;20499;-84
2022/10/20 04:02:24;;;;;;;19.27;18.00;;;18.00;99.90;;;;;;4972000;28;20042;-84
2022/10/20 04:04:50;;;;;;;18.05;16.83;;;18.00;99.90;;;;;;4973981;28;20038;-84
2022/10/20 04:07:16;;;;;;;17.90;16.67;;;17.80;99.90;;;;;;4988536;28;20042;-86
2022/10/20 04:09:42;;;;;;;18.58;17.48;;;17.90;99.90;;;;;;4972382;28;20504;-86
2022/10/20 04:12:08;;;;;;;19.65;18.42;;;17.90;99.90;;;;;;4988621;28;20041;-87
2022/10/20 04:14:34;;;;;;;18.27;16.98;;;17.90;99.90;;;;;;4972245;28;20400;-88
2022/10/20 04:17:01;;;;;;;17.70;16.45;;;17.90;99.90;;;;;;4956463;28;20038;-88
2022/10/20 04:19:27;;;;;;;18.15;16.65;;;17.90;99.90;;;;;;4956495;28;20492;-88
2022/10/20 04:21:53;;;;;;;17.85;16.85;;;17.90;99.90;;;;;;4987944;28;20037;-89
2022/10/20 04:24:19;;;;;;;19.40;18.00;;;17.90;99.90;;;;;;4972839;28;20089;-88
2022/10/20 04:26:47;;;;;;;17.05;15.85;;;17.90;99.90;;;;;;4988938;28;20043;-87
2022/10/20 04:29:13;;;;;;;18.92;17.67;;;17.90;99.90;;;;;;4987829;28;20046;-84
2022/10/20 04:31:40;;;;;;;18.38;17.15;;;17.90;99.90;;;;;;4989039;28;20035;-84
2022/10/20 04:34:06;;;;;;;18.23;17.17;;;17.90;99.90;;;;;;4997144;28;20364;-84
2022/10/20 04:36:32;;;;;;;19.27;18.08;;;17.80;99.90;;;;;;4988016;28;20054;-84
2022/10/20 04:38:58;;;;;;;18.20;16.77;;;17.80;99.90;;;;;;4987434;28;20053;-84
2022/10/20 04:41:24;;;;;;;19.13;18.10;;;17.90;99.90;;;;;;4988466;28;20038;-85
2022/10/20 04:43:51;;;;;;;19.30;17.88;;;17.80;99.90;;;;;;4988019;28;20042;-85
2022/10/20 04:46:17;;;;;;;18.35;17.35;;;17.80;99.90;;;;;;4955515;28;20035;-84
2022/10/20 04:48:43;;;;;;;18.33;17.33;;;17.90;99.90;;;;;;4956387;28;20050;-84
2022/10/20 04:51:11;;;;;;;17.52;16.13;;;17.90;99.90;;;;;;4972488;28;20057;-84
2022/10/20 04:53:37;;;;;;;16.20;15.10;;;17.70;99.90;;;;;;4956708;28;20042;-85
2022/10/20 04:56:04;;;;;;;15.90;14.80;;;17.50;99.90;;;;;;4940692;28;20042;-85
2022/10/20 04:58:30;;;;;;;16.35;15.25;;;17.50;99.90;;;;;;4955459;28;20047;-84
2022/10/20 05:01:08;;;;;;;16.60;15.60;;;17.40;99.90;;;;;;4955364;28;20055;-84
2022/10/20 05:03:34;;;;;;;16.17;15.07;;;17.50;99.90;;;;;;4972234;28;20381;-84
2022/10/20 05:06:10;;;;;;;16.75;15.48;;;17.40;99.90;;;;;;4956704;28;20027;-84
2022/10/20 05:08:37;;;;;;;17.10;15.80;;;17.30;99.90;;;;;;4971821;28;20031;-84
2022/10/20 05:11:03;;;;;;;16.02;15.02;;;17.30;99.90;;;;;;4988183;28;20039;-85
2022/10/20 05:13:29;;;;;;;17.77;16.67;;;17.20;99.90;;;;;;4985646;28;20511;-84
2022/10/20 05:15:55;;;;;;;15.98;14.95;;;17.20;99.90;;;;;;4987447;28;20030;-84
2022/10/20 05:18:21;;;;;;;18.30;17.00;;;17.00;99.90;;;;;;4972242;28;20042;-84
2022/10/20 05:20:47;;;;;;;17.88;16.63;;;16.90;99.90;;;;;;4972140;28;20502;-85
2022/10/20 05:23:13;;;;;;;19.42;18.17;;;16.90;99.90;;;;;;4988251;28;20034;-85
2022/10/20 05:25:39;;;;;;;20.30;19.10;;;16.90;99.90;;;;;;4988701;28;20490;-85
2022/10/20 05:28:05;;;;;;;20.45;19.00;;;17.00;99.90;;;;;;4971320;28;20054;-86
2022/10/20 05:30:35;;;;;;;19.23;18.02;;;17.10;99.90;;;;;;4955746;28;20408;-91
2022/10/20 05:33:01;;;;;;;17.42;16.33;;;17.10;99.90;;;;;;4972643;28;20039;-89
2022/10/20 05:35:27;;;;;;;20.60;19.20;;;17.10;99.90;;;;;;4971544;28;20035;-89
2022/10/20 05:40:27;;;;;;;19.00;17.80;;;17.10;99.90;;;;;;4923547;28;20055;-93
2022/10/20 05:42:53;;;;;;;18.58;17.27;;;17.10;99.90;;;;;;4923985;28;20047;-90
2022/10/20 05:45:19;;;;;;;18.40;17.15;;;17.10;99.90;;;;;;4918610;29;20043;-92
2022/10/20 05:47:45;;;;;;;20.10;18.77;;;17.20;99.90;;;;;;4926798;29;20040;-90
2022/10/20 05:50:11;;;;;;;18.95;17.70;;;17.00;99.90;;;;;;4922306;29;20039;-93
2022/10/20 05:52:37;;;;;;;18.63;17.38;;;17.00;99.90;;;;;;4942364;28;20032;-93
2022/10/20 05:55:04;;;;;;;19.38;18.17;;;16.80;99.90;;;;;;4914530;29;20054;-85
2022/10/20 05:57:30;;;;;;;17.98;16.80;;;16.80;99.90;;;;;;4919273;29;20379;-92
2022/10/20 05:59:56;;;;;;;17.83;16.33;;;16.70;99.90;;;;;;4919986;29;20397;-91
2022/10/20 06:02:22;;;;;;;17.20;15.50;;;16.80;99.90;;;;;;4904428;29;20052;-94
2022/10/20 06:04:48;;;;;;;19.40;18.08;;;16.80;99.90;;;;;;4926696;29;20075;-95
2022/10/20 06:07:14;;;;;;;17.60;16.23;;;16.90;99.90;;;;;;4944111;29;20036;-94
2022/10/20 06:09:40;;;;;;;20.40;18.83;;;16.90;99.90;;;;;;4926012;29;20039;-92
2022/10/20 06:12:06;;;;;;;18.83;17.52;;;17.10;99.90;;;;;;4911587;29;20047;-94
2022/10/20 06:14:32;;;;;;;18.55;17.35;;;17.10;99.90;;;;;;4926264;29;20047;-92
2022/10/20 06:16:59;;;;;;;20.83;18.98;;;17.10;99.90;;;;;;4905710;29;20028;-92
2022/10/20 06:19:25;;;;;;;18.77;17.42;;;17.10;99.90;;;;;;4906215;29;20067;-88
2022/10/20 06:21:51;;;;;;;20.30;18.98;;;17.10;99.90;;;;;;4924520;29;20032;-92
2022/10/20 06:24:18;;;;;;;19.75;18.30;;;17.20;99.90;;;;;;4916438;29;20039;-88
2022/10/20 06:26:44;;;;;;;17.65;16.58;;;17.20;99.90;;;;;;4916675;29;20047;-88
2022/10/20 06:29:12;;;;;;;18.52;17.38;;;17.40;99.90;;;;;;4916465;29;20047;-91
2022/10/20 06:31:43;;;;;;;20.05;18.63;;;17.30;99.90;;;;;;4902224;29;20106;-87
2022/10/20 06:34:12;;;;;;;19.55;18.35;;;17.20;99.90;;;;;;4901586;29;20052;-88
2022/10/20 06:36:38;;;;;;;19.50;18.23;;;17.30;99.90;;;;;;4922485;29;20367;-88
2022/10/20 06:39:05;;;;;;;19.17;17.88;;;17.20;99.90;;;;;;4923405;29;20056;-93
2022/10/20 06:41:32;;;;;;;19.58;18.30;;;17.20;99.90;;;;;;4914362;29;20060;-94
2022/10/20 06:43:59;;;;;;;21.98;20.48;;;17.10;99.90;;;;;;4945061;29;20482;-94
2022/10/20 06:46:26;;;;;;;20.17;18.65;;;17.10;99.90;;;;;;4924386;29;20047;-92
2022/10/20 06:48:52;;;;;;;20.08;18.52;;;17.00;99.90;;;;;;4903132;29;20071;-90
2022/10/20 06:51:20;;;;;;;20.23;18.70;;;17.00;99.90;;;;;;4902679;29;20036;-90
2022/10/20 06:53:47;;;;;;;20.15;18.58;;;17.00;99.90;;;;;;4901809;29;20048;-90
2022/10/20 06:56:15;;;;;;;19.05;17.83;;;17.00;99.90;;;;;;4917770;29;20043;-92
2022/10/20 06:58:42;;;;;;;21.75;19.83;;;17.00;99.90;;;;;;4920791;29;20040;-92
2022/10/20 07:01:11;;;;;;;20.23;18.92;;;17.00;99.90;;;;;;4941652;28;20035;-94
2022/10/20 07:03:37;;;;;;;19.17;18.00;;;17.00;99.90;;;;;;4941058;28;20038;-90
2022/10/20 07:06:04;;;;;;;19.33;17.80;;;17.10;99.90;;;;;;4927424;29;20066;-89
2022/10/20 07:08:32;;;;;;;20.50;19.10;;;17.10;99.90;;;;;;4946019;28;20044;-86
2022/10/20 07:10:59;;;;;;;22.33;20.65;;;17.30;99.90;;;;;;4935857;29;20030;-88
2022/10/20 07:13:26;;;;;;;19.75;18.45;;;17.40;99.90;;;;;;4953573;28;20040;-94
2022/10/20 07:15:53;;;;;;;19.48;18.25;;;17.50;99.90;;;;;;4947858;28;20539;-91
2022/10/20 07:20:57;;;;;;;21.73;20.25;;;17.40;99.90;;;;;;4074435;26;20094;-87
2022/10/20 07:23:25;;;;;;;20.38;19.10;;;17.40;99.90;;;;;;4941555;29;20397;-87
2022/10/20 07:25:51;;;;;;;20.17;18.98;;;17.60;99.90;;;;;;4942743;29;20047;-89
2022/10/20 07:28:20;;;;;;;18.38;17.35;;;17.90;99.90;;;;;;4961194;29;20045;-89
2022/10/20 07:30:46;;;;;;;21.50;20.17;;;18.40;99.90;;;;;;4981815;28;20050;-90
2022/10/20 07:33:12;;;;;;;16.33;15.32;;;18.90;99.90;;;;;;4950303;29;20050;-91
2022/10/20 07:35:38;;;;;;;21.90;20.08;;;19.30;99.90;;;;;;4958003;28;20031;-89
2022/10/20 07:38:04;;;;;;;18.60;17.40;;;19.70;99.50;;;;;;4973871;28;20039;-87
2022/10/20 07:40:30;;;;;;;22.90;21.60;;;19.70;99.30;;;;;;4953121;29;20046;-86
2022/10/20 07:42:56;;;;;;;22.85;21.60;;;19.70;98.00;;;;;;4937252;29;20480;-86
2022/10/20 07:45:22;;;;;;;23.98;22.30;;;19.90;97.20;;;;;;4970066;28;20039;-89
2022/10/20 07:47:48;;;;;;;22.05;20.50;;;19.90;98.60;;;;;;4969905;28;20054;-89
2022/10/20 07:50:15;;;;;;;20.75;19.15;;;19.80;97.60;;;;;;4953821;29;20043;-85
2022/10/20 07:52:41;;;;;;;22.17;20.48;;;19.90;96.70;;;;;;4953503;29;20035;-84
2022/10/20 07:55:07;;;;;;;23.70;22.27;;;19.90;97.50;;;;;;4947803;29;20035;-88
2022/10/20 07:57:33;;;;;;;22.55;20.98;;;20.30;96.20;;;;;;4969044;28;20047;-88
2022/10/20 08:00:00;;;;;;;23.55;21.75;;;20.30;96.20;;;;;;4940289;29;20039;-87
2022/10/20 08:02:26;;;;;;;21.55;20.30;;;20.70;96.00;;;;;;4934402;28;20043;-86
2022/10/20 08:04:52;;;;;;;27.98;25.88;;;20.80;95.20;;;;;;4938578;29;20039;-93
2022/10/20 08:07:18;;;;;;;29.13;27.02;;;20.90;96.00;;;;;;4970752;28;20030;-90
2022/10/20 08:09:45;;;;;;;28.00;25.92;;;21.20;95.80;;;;;;4954319;28;20027;-91
2022/10/20 08:12:11;;;;;;;26.55;24.90;;;21.40;94.00;;;;;;4970300;28;20023;-93
2022/10/20 08:14:38;;;;;;;29.90;27.98;;;21.60;93.60;;;;;;4937130;28;20043;-89
2022/10/20 08:17:04;;;;;;;23.52;22.13;;;21.60;94.10;;;;;;4947803;28;20042;-89
2022/10/20 08:19:30;;;;;;;26.38;24.98;;;21.40;93.40;;;;;;4968944;28;20058;-90
2022/10/20 08:21:56;;;;;;;24.25;22.65;;;21.00;93.70;;;;;;4954068;28;20035;-89
2022/10/20 08:24:22;;;;;;;25.13;23.65;;;20.90;94.30;;;;;;4970449;28;20033;-91
2022/10/20 08:26:48;;;;;;;24.17;22.60;;;20.80;94.50;;;;;;4954766;28;20038;-93
2022/10/20 08:29:14;;;;;;;21.10;19.75;;;20.70;94.60;;;;;;4954690;29;20043;-93
2022/10/20 08:31:42;;;;;;;25.17;23.48;;;20.70;94.80;;;;;;4938177;28;20485;-93
2022/10/20 08:34:08;;;;;;;32.75;30.02;;;20.70;94.60;;;;;;4961918;28;20031;-93
2022/10/20 08:36:36;;;;;;;26.00;24.23;;;20.60;94.80;;;;;;4970810;28;20377;-93
2022/10/20 08:39:02;;;;;;;23.90;22.50;;;20.70;94.50;;;;;;4939876;29;20031;-91
2022/10/20 08:41:37;;;;;;;23.35;21.90;;;20.70;94.30;;;;;;4937518;29;20036;-88
2022/10/20 08:44:03;;;;;;;24.88;23.33;;;20.80;94.50;;;;;;4936513;29;20031;-88
2022/10/20 08:46:34;;;;;;;25.92;24.33;;;21.10;94.30;;;;;;4920276;28;20489;-89
2022/10/20 08:49:01;;;;;;;24.88;23.23;;;21.10;93.90;;;;;;4966200;28;20511;-89
2022/10/20 08:51:30;;;;;;;25.75;23.90;;;21.10;93.60;;;;;;4957476;28;20039;-89
2022/10/20 08:53:58;;;;;;;26.00;24.40;;;21.10;93.80;;;;;;4968941;28;20397;-89
2022/10/20 08:56:26;;;;;;;27.38;25.77;;;21.10;93.80;;;;;;4969169;28;20031;-89
2022/10/20 08:58:52;;;;;;;25.63;23.83;;;21.00;93.80;;;;;;4937565;29;20047;-89
2022/10/20 09:01:31;;;;;;;25.77;24.05;;;21.00;93.70;;;;;;4949450;28;20039;-90
2022/10/20 09:03:59;;;;;;;25.90;24.15;;;21.10;93.20;;;;;;4942525;29;20043;-89
2022/10/20 09:06:25;;;;;;;27.38;25.70;;;21.00;94.20;;;;;;4948853;28;20043;-87
2022/10/20 09:08:51;;;;;;;27.23;25.70;;;21.00;93.80;;;;;;4928343;29;20031;-87
2022/10/20 09:11:24;;;;;;;29.50;27.48;;;21.10;93.30;;;;;;4949731;29;20043;-87
2022/10/20 09:13:51;;;;;;;27.35;25.48;;;21.10;93.50;;;;;;4943146;28;20028;-87
2022/10/20 09:16:26;;;;;;;30.30;28.70;;;21.10;93.40;;;;;;4925461;28;20034;-87
2022/10/20 09:18:55;;;;;;;32.25;30.13;;;21.10;93.10;;;;;;4961261;28;20056;-86
2022/10/20 09:21:21;;;;;;;28.48;26.67;;;21.20;93.30;;;;;;4955095;28;20073;-86
2022/10/20 09:23:52;;;;;;;27.95;26.25;;;21.10;92.70;;;;;;4952607;29;20039;-89
2022/10/20 09:26:21;;;;;;;31.23;29.52;;;21.10;93.30;;;;;;4968273;28;20040;-90
2022/10/20 09:28:49;;;;;;;32.30;30.33;;;21.10;92.90;;;;;;4934089;29;20031;-88
2022/10/20 09:31:24;;;;;;;28.77;26.95;;;21.10;92.70;;;;;;4961102;28;20040;-90
2022/10/20 09:33:50;;;;;;;36.35;33.58;;;21.00;92.80;;;;;;4939294;29;20465;-87
2022/10/20 09:36:17;;;;;;;33.92;31.27;;;21.00;92.70;;;;;;4952894;29;20289;-88
2022/10/20 09:38:45;;;;;;;32.15;30.10;;;21.00;92.70;;;;;;4940805;29;20039;-88
2022/10/20 09:41:30;;;;;;;33.92;31.63;;;21.00;93.00;;;;;;4941896;28;20036;-91
2022/10/20 09:44:01;;;;;;;33.90;31.92;;;21.10;93.10;;;;;;4925949;29;20047;-90
2022/10/20 09:46:33;;;;;;;35.50;33.22;;;21.20;93.00;;;;;;4930814;28;20036;-91
2022/10/20 09:48:59;;;;;;;32.50;30.38;;;21.30;92.70;;;;;;4964819;28;20134;-89
2022/10/20 09:51:26;;;;;;;34.17;32.00;;;21.20;92.50;;;;;;4964030;28;20036;-89
2022/10/20 09:53:58;;;;;;;35.30;32.78;;;21.30;92.70;;;;;;4966919;28;20047;-89
2022/10/20 09:56:40;;;;;;;33.85;31.63;;;21.30;92.40;;;;;;4962015;28;20042;-88
2022/10/20 09:59:31;;;;;;;35.80;33.72;;;21.30;92.10;;;;;;4926110;29;20129;-91
2022/10/20 10:01:58;;;;;;;35.80;33.80;;;21.40;92.00;;;;;;4927498;28;20039;-88
2022/10/20 10:04:49;;;;;;;35.75;33.40;;;21.40;92.40;;;;;;4966442;28;20047;-89
2022/10/20 10:07:20;;;;;;;31.70;29.87;;;21.40;92.00;;;;;;4901124;29;20036;-89
2022/10/20 10:09:56;;;;;;;34.95;32.83;;;21.40;91.40;;;;;;4912673;29;20300;-87
2022/10/20 10:12:22;;;;;;;33.00;30.77;;;21.50;91.70;;;;;;4889302;29;20036;-87
2022/10/20 10:14:57;;;;;;;34.60;32.35;;;21.50;91.50;;;;;;4879202;29;20047;-88
2022/10/20 10:17:39;;;;;;;34.70;32.47;;;21.50;91.50;;;;;;4897507;29;20040;-88
2022/10/20 10:20:11;;;;;;;30.40;28.60;;;21.60;91.50;;;;;;4900411;29;20446;-89
2022/10/20 10:22:38;;;;;;;31.88;29.88;;;21.60;90.90;;;;;;4899631;29;20040;-88
2022/10/20 10:25:05;;;;;;;34.70;32.70;;;21.50;91.10;;;;;;4890279;29;20140;-89
2022/10/20 10:27:32;;;;;;;32.33;30.52;;;21.60;91.10;;;;;;4898018;29;20043;-88
2022/10/20 10:30:26;;;;;;;33.13;31.15;;;21.60;91.30;;;;;;4898021;29;20056;-88
2022/10/20 10:32:52;;;;;;;33.85;31.83;;;21.60;91.00;;;;;;4901781;29;20033;-88
2022/10/20 10:35:18;;;;;;;32.67;30.63;;;21.60;91.10;;;;;;4894252;29;20056;-86
2022/10/20 10:37:44;;;;;;;33.67;31.45;;;21.60;90.80;;;;;;4903893;29;20653;-87
2022/10/20 10:40:16;;;;;;;32.78;31.08;;;21.60;90.60;;;;;;4879940;29;20061;-86
2022/10/20 10:42:45;;;;;;;31.52;29.70;;;21.70;90.60;;;;;;4892671;29;20032;-88
2022/10/20 10:45:22;;;;;;;31.98;30.08;;;21.70;90.30;;;;;;4926047;28;20039;-89
2022/10/20 10:48:11;;;;;;;31.13;29.38;;;21.70;89.90;;;;;;4934993;29;20039;-88
2022/10/20 10:50:55;;;;;;;32.22;30.25;;;21.80;90.40;;;;;;4950106;28;20028;-88
2022/10/20 10:53:28;;;;;;;33.30;31.50;;;21.90;90.40;;;;;;4933123;29;20031;-88
2022/10/20 10:56:16;;;;;;;34.25;31.85;;;21.90;89.50;;;;;;4933101;29;20048;-87
2022/10/20 10:59:05;;;;;;;32.47;30.60;;;21.90;89.10;;;;;;4936338;29;20032;-85
2022/10/20 11:01:50;;;;;;;30.50;28.52;;;22.00;89.30;;;;;;4932836;28;20477;-87
2022/10/20 11:04:35;;;;;;;30.50;28.70;;;21.90;90.30;;;;;;4949525;29;20043;-86
2022/10/20 11:07:52;;;;;;;32.60;30.77;;;21.90;90.60;;;;;;4932085;29;20035;-87
2022/10/20 11:10:39;;;;;;;28.95;27.05;;;21.70;91.00;;;;;;4913931;29;20139;-88
2022/10/20 11:13:20;;;;;;;29.38;27.58;;;21.60;91.10;;;;;;4914195;29;20037;-89
2022/10/20 11:16:11;;;;;;;29.77;27.83;;;21.50;91.10;;;;;;4922092;28;20040;-88
2022/10/20 11:18:42;;;;;;;27.80;26.00;;;21.40;91.50;;;;;;4903797;29;20036;-87
2022/10/20 11:21:08;;;;;;;28.05;26.35;;;21.30;91.30;;;;;;4914070;29;20064;-88
2022/10/20 11:23:37;;;;;;;28.58;26.60;;;21.40;91.50;;;;;;4912232;29;20051;-86
2022/10/20 11:26:27;;;;;;;25.38;23.70;;;21.40;91.30;;;;;;4909082;29;20057;-85
2022/10/20 11:28:54;;;;;;;26.98;25.48;;;21.40;91.40;;;;;;4898794;29;20035;-85
2022/10/20 11:31:38;;;;;;;27.25;25.55;;;21.50;91.30;;;;;;4897412;29;20032;-90
2022/10/20 11:34:28;;;;;;;30.15;28.33;;;21.50;91.20;;;;;;4900306;29;20038;-87
2022/10/20 11:37:45;;;;;;;28.88;27.17;;;21.60;92.00;;;;;;4899867;29;20153;-87
2022/10/20 11:40:13;;;;;;;29.00;27.33;;;21.60;92.40;;;;;;4850412;29;20065;-89
2022/10/20 11:42:56;;;;;;;28.67;26.70;;;21.70;92.60;;;;;;4849456;29;20155;-88
2022/10/20 11:45:47;;;;;;;28.15;26.65;;;21.70;92.30;;;;;;4844025;29;20052;-89
2022/10/20 11:48:28;;;;;;;32.33;30.58;;;21.70;92.60;;;;;;4905319;29;20402;-88
2022/10/20 11:51:20;;;;;;;28.80;26.90;;;21.70;92.50;;;;;;4906889;29;20049;-88
2022/10/20 11:53:57;;;;;;;28.60;26.73;;;21.60;92.60;;;;;;4889849;29;20141;-89
2022/10/20 11:56:34;;;;;;;28.75;26.70;;;21.70;92.60;;;;;;4891568;29;20037;-88
2022/10/20 11:59:29;;;;;;;30.88;29.13;;;21.90;92.50;;;;;;4910539;29;20052;-89
2022/10/20 12:02:17;;;;;;;30.17;28.20;;;21.80;92.10;;;;;;4848992;29;20042;-89
2022/10/20 12:04:43;;;;;;;29.25;27.58;;;21.70;92.50;;;;;;4839369;29;20049;-88
2022/10/20 12:07:36;;;;;;;29.38;27.38;;;21.70;92.50;;;;;;4840047;29;20037;-90
2022/10/20 12:10:12;;;;;;;28.80;27.10;;;21.70;92.10;;;;;;4851187;29;20045;-88
2022/10/20 12:12:57;;;;;;;27.80;26.20;;;21.80;92.20;;;;;;4866276;29;20041;-88
2022/10/20 12:15:24;;;;;;;27.85;26.17;;;21.90;91.90;;;;;;4875614;29;20037;-89
2022/10/20 12:17:51;;;;;;;25.98;24.38;;;22.10;92.10;;;;;;4875350;29;20040;-89
2022/10/20 12:20:19;;;;;;;26.73;24.98;;;22.30;91.50;;;;;;4878205;29;20059;-89
2022/10/20 12:22:49;;;;;;;29.42;27.52;;;22.20;91.70;;;;;;4894692;29;20048;-88
2022/10/20 12:25:24;;;;;;;31.52;29.60;;;22.20;92.00;;;;;;4877920;29;20063;-88
2022/10/20 12:28:21;;;;;;;36.95;34.58;;;22.40;91.90;;;;;;4893638;29;20040;-89
2022/10/20 12:30:58;;;;;;;33.60;31.08;;;22.60;91.80;;;;;;4903556;29;20047;-88
2022/10/20 12:33:52;;;;;;;31.20;29.20;;;22.70;91.60;;;;;;4916612;29;20036;-88
2022/10/20 12:36:18;;;;;;;35.70;33.55;;;22.60;91.60;;;;;;4913679;29;20390;-89
2022/10/20 12:38:45;;;;;;;28.00;26.15;;;22.30;92.30;;;;;;4931123;29;20393;-87
2022/10/20 12:41:23;;;;;;;30.48;28.55;;;22.30;92.30;;;;;;4984810;28;20039;-87
2022/10/20 12:43:53;;;;;;;34.47;32.10;;;22.50;92.40;;;;;;4983327;28;20050;-87
2022/10/20 12:46:21;;;;;;;35.80;33.57;;;22.80;91.70;;;;;;4936266;28;20392;-88
2022/10/20 12:48:55;;;;;;;39.03;36.67;;;22.80;91.30;;;;;;4967466;28;20020;-87
2022/10/20 12:51:37;;;;;;;44.83;41.88;;;22.90;91.60;;;;;;4982049;28;20042;-88